Time;durP1;ratioP1;P1;durP2;ratioP2;P2;SDS_P1;SDS_P2;PMS_P1;PMS_P2;Temp;Humidity;BMP_temperature;BMP_pressure;BME280_temperature;BME280_humidity;BME280_pressure;Samples;Min_cycle;Max_cycle;Signal;HPM_P1;HPM_P2
2023/12/19 00:01:18;;;;;;;12.82;7.45;;;;;;;;;;5010430;28;20037;-50
2023/12/19 00:03:44;;;;;;;19.20;12.25;;;;;;;;;;5016201;28;20797;-50
2023/12/19 00:06:10;;;;;;;21.88;11.50;;;;;;;;;;5030103;28;20029;-54
2023/12/19 00:08:36;;;;;;;11.90;6.53;;;;;;;;;;5029982;28;20032;-52
2023/12/19 00:11:03;;;;;;;14.93;9.73;;;;;;;;;;5012269;28;20095;-51
2023/12/19 00:13:28;;;;;;;16.35;9.05;;;;;;;;;;5030155;28;20436;-56
2023/12/19 00:15:54;;;;;;;14.52;6.80;;;;;;;;;;5030372;28;20060;-53
2023/12/19 00:18:20;;;;;;;16.50;8.00;;;;;;;;;;5012250;28;20036;-52
2023/12/19 00:20:47;;;;;;;30.17;14.23;;;;;;;;;;5030036;28;20025;-52
2023/12/19 00:23:13;;;;;;;12.05;6.15;;;;;;;;;;5011895;28;20029;-52
2023/12/19 00:25:39;;;;;;;10.50;5.72;;;;;;;;;;5024363;28;20033;-56
2023/12/19 00:28:05;;;;;;;13.85;8.32;;;;;;;;;;5021084;28;20033;-57
2023/12/19 00:30:31;;;;;;;21.95;10.90;;;;;;;;;;5018722;28;20394;-56
2023/12/19 00:32:57;;;;;;;17.58;9.98;;;;;;;;;;5024943;28;20041;-57
2023/12/19 00:35:23;;;;;;;22.60;11.40;;;;;;;;;;5030728;28;20030;-57
2023/12/19 00:37:49;;;;;;;17.38;9.90;;;;;;;;;;5030163;28;20116;-58
2023/12/19 00:40:15;;;;;;;13.65;7.78;;;;;;;;;;5031273;28;20024;-56
2023/12/19 00:42:42;;;;;;;14.30;9.07;;;;;;;;;;5032513;28;20472;-55
2023/12/19 00:45:08;;;;;;;12.13;7.10;;;;;;;;;;5031870;28;20503;-55
2023/12/19 00:47:34;;;;;;;20.00;11.25;;;;;;;;;;5032139;28;20104;-55
2023/12/19 00:50:00;;;;;;;14.18;9.25;;;;;;;;;;5032511;28;20036;-51
2023/12/19 00:52:27;;;;;;;22.80;13.95;;;;;;;;;;5031032;28;20116;-51
2023/12/19 00:54:53;;;;;;;23.75;12.13;;;;;;;;;;5032497;28;20403;-54
2023/12/19 00:57:19;;;;;;;19.05;11.30;;;;;;;;;;5032220;28;20045;-54
2023/12/19 00:59:45;;;;;;;15.57;9.00;;;;;;;;;;5032424;28;20018;-54
2023/12/19 01:02:11;;;;;;;30.52;14.15;;;;;;;;;;5031975;28;20107;-52
2023/12/19 01:04:37;;;;;;;12.15;7.28;;;;;;;;;;5030899;28;20031;-49
2023/12/19 01:07:03;;;;;;;20.08;14.45;;;;;;;;;;5032154;28;20083;-53
2023/12/19 01:09:29;;;;;;;12.55;7.47;;;;;;;;;;5032265;28;20025;-51
2023/12/19 01:11:55;;;;;;;22.42;11.93;;;;;;;;;;5030531;28;20494;-54
2023/12/19 01:14:21;;;;;;;25.63;14.30;;;;;;;;;;5032019;28;20049;-50
2023/12/19 01:16:47;;;;;;;16.08;9.88;;;;;;;;;;5045690;23;20063;-64
2023/12/19 01:19:13;;;;;;;17.55;9.40;;;;;;;;;;5050406;28;20368;-64
2023/12/19 01:21:39;;;;;;;17.58;9.55;;;;;;;;;;5050217;28;20021;-64
2023/12/19 01:24:05;;;;;;;13.63;7.88;;;;;;;;;;5051493;28;20028;-64
2023/12/19 01:26:32;;;;;;;12.15;7.25;;;;;;;;;;5050800;28;20025;-61
2023/12/19 01:28:58;;;;;;;12.88;7.80;;;;;;;;;;5050705;28;20527;-64
2023/12/19 01:31:24;;;;;;;15.63;8.45;;;;;;;;;;5050761;28;20119;-63
2023/12/19 01:33:51;;;;;;;17.40;11.98;;;;;;;;;;5049603;28;20064;-64
2023/12/19 01:36:17;;;;;;;14.00;7.97;;;;;;;;;;5050878;28;20025;-64
2023/12/19 01:38:43;;;;;;;11.95;7.50;;;;;;;;;;5050777;28;20401;-64
2023/12/19 01:41:09;;;;;;;22.80;12.13;;;;;;;;;;5050543;28;20021;-63
2023/12/19 01:43:35;;;;;;;11.77;7.43;;;;;;;;;;5050809;28;20047;-64
2023/12/19 01:46:01;;;;;;;24.98;11.88;;;;;;;;;;5050628;28;20450;-64
2023/12/19 01:48:27;;;;;;;15.13;8.82;;;;;;;;;;5050178;28;20191;-65
2023/12/19 01:50:53;;;;;;;15.50;8.55;;;;;;;;;;5050177;28;20502;-63
2023/12/19 01:53:20;;;;;;;12.77;7.68;;;;;;;;;;5050643;28;20040;-64
2023/12/19 01:55:48;;;;;;;12.63;7.40;;;;;;;;;;5049014;28;20032;-64
2023/12/19 01:58:15;;;;;;;13.32;7.95;;;;;;;;;;5050159;28;20028;-65
2023/12/19 02:00:41;;;;;;;11.07;6.65;;;;;;;;;;5049952;28;20028;-65
2023/12/19 02:03:07;;;;;;;16.45;9.00;;;;;;;;;;5048725;28;20433;-64
2023/12/19 02:05:33;;;;;;;14.60;8.70;;;;;;;;;;5049930;28;20064;-64
2023/12/19 02:07:59;;;;;;;16.55;8.65;;;;;;;;;;5049715;28;20060;-64
2023/12/19 02:10:25;;;;;;;13.40;6.32;;;;;;;;;;5049638;28;20032;-63
2023/12/19 02:12:52;;;;;;;11.85;7.57;;;;;;;;;;5048558;28;20025;-68
2023/12/19 02:15:18;;;;;;;11.20;6.82;;;;;;;;;;5049985;28;20025;-63
2023/12/19 02:17:44;;;;;;;9.80;6.00;;;;;;;;;;5049625;28;20060;-64
2023/12/19 02:20:10;;;;;;;17.42;11.05;;;;;;;;;;5048673;28;20121;-63
2023/12/19 02:22:36;;;;;;;9.63;6.43;;;;;;;;;;5049577;28;20513;-65
2023/12/19 02:25:02;;;;;;;17.35;11.60;;;;;;;;;;5049343;28;20033;-64
2023/12/19 02:27:28;;;;;;;14.65;8.55;;;;;;;;;;5049644;28;20096;-63
2023/12/19 02:29:54;;;;;;;8.27;4.90;;;;;;;;;;5049527;28;20017;-64
2023/12/19 02:32:20;;;;;;;7.57;4.45;;;;;;;;;;5048344;28;20070;-63
2023/12/19 02:34:48;;;;;;;11.13;6.80;;;;;;;;;;5031402;28;20024;-63
2023/12/19 02:37:14;;;;;;;7.43;4.43;;;;;;;;;;5028053;28;20083;-63
2023/12/19 02:39:40;;;;;;;11.85;6.63;;;;;;;;;;5044194;28;20029;-63
2023/12/19 02:42:06;;;;;;;10.50;5.60;;;;;;;;;;5044549;28;20386;-64
2023/12/19 02:44:32;;;;;;;16.38;14.00;;;;;;;;;;5057989;28;20051;-62
2023/12/19 02:46:58;;;;;;;11.02;6.22;;;;;;;;;;5068118;28;20036;-65
2023/12/19 02:49:24;;;;;;;19.17;9.38;;;;;;;;;;5069227;28;20024;-60
2023/12/19 02:51:50;;;;;;;12.52;5.70;;;;;;;;;;5069344;28;20094;-64
2023/12/19 02:54:16;;;;;;;11.73;7.15;;;;;;;;;;5051570;28;20040;-62
2023/12/19 02:56:42;;;;;;;11.70;7.10;;;;;;;;;;5069036;28;20398;-63
2023/12/19 02:59:08;;;;;;;16.67;11.10;;;;;;;;;;5069277;28;20185;-63
2023/12/19 03:01:34;;;;;;;17.88;11.35;;;;;;;;;;5055976;28;20087;-61
2023/12/19 03:04:00;;;;;;;14.48;10.07;;;;;;;;;;5048970;28;20025;-61
2023/12/19 03:06:26;;;;;;;15.13;9.38;;;;;;;;;;5048932;28;20045;-62
2023/12/19 03:08:57;;;;;;;12.55;8.38;;;;;;;;;;5048857;28;20028;-63
2023/12/19 03:11:23;;;;;;;13.32;8.27;;;;;;;;;;5027634;28;20018;-62
2023/12/19 03:13:49;;;;;;;18.45;12.10;;;;;;;;;;5046637;28;20025;-61
2023/12/19 03:16:15;;;;;;;16.17;9.95;;;;;;;;;;5048886;28;20131;-62
2023/12/19 03:18:41;;;;;;;17.42;9.00;;;;;;;;;;5048702;28;20032;-61
2023/12/19 03:21:08;;;;;;;14.45;9.45;;;;;;;;;;5048898;28;20018;-62
2023/12/19 03:23:34;;;;;;;19.77;12.77;;;;;;;;;;5048908;28;20067;-62
2023/12/19 03:26:00;;;;;;;13.27;8.02;;;;;;;;;;5048908;28;20032;-63
2023/12/19 03:28:26;;;;;;;19.48;12.40;;;;;;;;;;5027674;28;20025;-62
2023/12/19 03:30:52;;;;;;;21.42;12.93;;;;;;;;;;5028745;28;20463;-62
2023/12/19 03:33:18;;;;;;;13.90;9.10;;;;;;;;;;5049392;28;20021;-63
2023/12/19 03:35:44;;;;;;;15.38;9.82;;;;;;;;;;5049314;28;20548;-63
2023/12/19 03:38:11;;;;;;;26.08;10.02;;;;;;;;;;5027552;28;20070;-62
2023/12/19 03:40:37;;;;;;;20.38;13.57;;;;;;;;;;5045010;28;20049;-62
2023/12/19 03:43:03;;;;;;;14.93;11.10;;;;;;;;;;5048873;28;20013;-62
2023/12/19 03:45:29;;;;;;;14.80;10.70;;;;;;;;;;5027398;28;20021;-63
2023/12/19 03:47:55;;;;;;;15.95;12.60;;;;;;;;;;5029031;28;20024;-61
2023/12/19 03:50:21;;;;;;;16.98;12.30;;;;;;;;;;5048263;28;20033;-63
2023/12/19 03:52:47;;;;;;;19.73;13.75;;;;;;;;;;5056259;28;20565;-62
2023/12/19 03:55:13;;;;;;;21.10;14.98;;;;;;;;;;5043461;28;20119;-62
2023/12/19 03:57:39;;;;;;;19.30;17.02;;;;;;;;;;5070364;28;20032;-61
2023/12/19 04:00:06;;;;;;;16.88;12.15;;;;;;;;;;5072774;28;20025;-62
2023/12/19 04:02:32;;;;;;;21.42;14.85;;;;;;;;;;5054513;28;20567;-60
2023/12/19 04:04:58;;;;;;;24.85;15.75;;;;;;;;;;5072425;28;20024;-61
2023/12/19 04:07:24;;;;;;;16.95;14.48;;;;;;;;;;5072771;28;20021;-62
2023/12/19 04:09:50;;;;;;;19.10;15.60;;;;;;;;;;5072766;28;20624;-63
2023/12/19 04:12:16;;;;;;;17.92;14.65;;;;;;;;;;5072237;28;20025;-63
2023/12/19 04:14:42;;;;;;;21.23;17.73;;;;;;;;;;5072299;28;20399;-63
2023/12/19 04:17:08;;;;;;;16.08;14.38;;;;;;;;;;5072608;28;20032;-63
2023/12/19 04:19:34;;;;;;;18.23;16.02;;;;;;;;;;5072664;28;20559;-63
2023/12/19 04:22:00;;;;;;;17.08;15.27;;;;;;;;;;5054296;28;20051;-63
2023/12/19 04:24:26;;;;;;;19.13;16.95;;;;;;;;;;5072109;28;20379;-61
2023/12/19 04:26:52;;;;;;;17.67;15.23;;;;;;;;;;5054446;28;20508;-61
2023/12/19 04:29:18;;;;;;;24.45;19.02;;;;;;;;;;5054317;28;20032;-62
2023/12/19 04:31:44;;;;;;;17.27;15.48;;;;;;;;;;5054160;28;20050;-63
2023/12/19 04:34:10;;;;;;;26.38;20.10;;;;;;;;;;5072111;28;20033;-63
2023/12/19 04:36:36;;;;;;;20.02;16.20;;;;;;;;;;5071713;28;20024;-62
2023/12/19 04:39:03;;;;;;;18.90;16.88;;;;;;;;;;5053599;28;20645;-62
2023/12/19 04:41:29;;;;;;;25.70;23.35;;;;;;;;;;5071585;28;20024;-61
2023/12/19 04:43:55;;;;;;;18.08;16.25;;;;;;;;;;5070022;28;20057;-62
2023/12/19 04:46:21;;;;;;;21.83;19.38;;;;;;;;;;5051395;28;20075;-62
2023/12/19 04:48:47;;;;;;;16.83;14.60;;;;;;;;;;5051345;28;20112;-63
2023/12/19 04:51:18;;;;;;;19.33;17.25;;;;;;;;;;5051380;28;20060;-62
2023/12/19 04:53:45;;;;;;;20.23;18.08;;;;;;;;;;5051511;28;20025;-62
2023/12/19 04:56:11;;;;;;;20.65;16.73;;;;;;;;;;5050020;28;20036;-62
2023/12/19 04:58:37;;;;;;;27.73;25.13;;;;;;;;;;5051096;28;20101;-63
2023/12/19 05:01:03;;;;;;;27.30;18.75;;;;;;;;;;5051443;28;20552;-62
2023/12/19 05:03:29;;;;;;;20.00;17.33;;;;;;;;;;5051287;28;20104;-62
2023/12/19 05:05:55;;;;;;;20.80;18.45;;;;;;;;;;5051301;28;20086;-62
2023/12/19 05:08:21;;;;;;;27.55;19.88;;;;;;;;;;5051017;28;20037;-62
2023/12/19 05:10:48;;;;;;;21.48;19.17;;;;;;;;;;5050453;28;20036;-61
2023/12/19 05:13:14;;;;;;;20.83;18.70;;;;;;;;;;5051016;28;20028;-62
2023/12/19 05:15:40;;;;;;;17.80;16.00;;;;;;;;;;5050766;28;20134;-62
2023/12/19 05:18:05;;;;;;;22.55;20.23;;;;;;;;;;5049275;28;20029;-62
2023/12/19 05:20:31;;;;;;;21.23;19.00;;;;;;;;;;5049585;28;20557;-61
2023/12/19 05:22:57;;;;;;;25.58;23.10;;;;;;;;;;5051284;28;20049;-62
2023/12/19 05:25:24;;;;;;;22.80;20.60;;;;;;;;;;5050671;28;20021;-62
2023/12/19 05:27:50;;;;;;;22.38;20.10;;;;;;;;;;5050642;28;20040;-63
2023/12/19 05:30:16;;;;;;;22.40;20.17;;;;;;;;;;5050727;28;20025;-62
2023/12/19 05:32:42;;;;;;;23.40;20.98;;;;;;;;;;5049201;28;20029;-61
2023/12/19 05:35:08;;;;;;;20.92;18.92;;;;;;;;;;5050859;28;20487;-62
2023/12/19 05:37:34;;;;;;;23.05;20.77;;;;;;;;;;5050251;28;20025;-61
2023/12/19 05:40:00;;;;;;;23.15;20.90;;;;;;;;;;5050420;28;20035;-62
2023/12/19 05:42:26;;;;;;;22.52;20.42;;;;;;;;;;5049913;28;20021;-62
2023/12/19 05:44:52;;;;;;;25.77;23.10;;;;;;;;;;5050531;28;20475;-58
2023/12/19 05:47:18;;;;;;;26.58;24.30;;;;;;;;;;5050158;28;20025;-61
2023/12/19 05:49:44;;;;;;;22.95;20.95;;;;;;;;;;5049462;28;20027;-63
2023/12/19 05:52:10;;;;;;;25.55;22.55;;;;;;;;;;5049810;28;20446;-63
2023/12/19 05:54:36;;;;;;;23.85;21.75;;;;;;;;;;5048791;28;20121;-63
2023/12/19 05:57:02;;;;;;;24.05;21.95;;;;;;;;;;5048950;28;20108;-63
2023/12/19 05:59:27;;;;;;;23.15;20.95;;;;;;;;;;5050044;28;20025;-62
2023/12/19 06:01:53;;;;;;;22.63;20.58;;;;;;;;;;5048500;28;20040;-61
2023/12/19 06:04:19;;;;;;;25.25;23.15;;;;;;;;;;5050094;28;20104;-62
2023/12/19 06:06:45;;;;;;;29.02;26.63;;;;;;;;;;5049624;28;20612;-62
2023/12/19 06:09:12;;;;;;;29.88;27.02;;;;;;;;;;5050015;28;20087;-61
2023/12/19 06:11:38;;;;;;;29.70;27.20;;;;;;;;;;5049654;28;20033;-62
2023/12/19 06:14:05;;;;;;;29.25;26.85;;;;;;;;;;5049648;28;20497;-62
2023/12/19 06:16:31;;;;;;;27.65;25.35;;;;;;;;;;5049857;28;20059;-62
2023/12/19 06:18:57;;;;;;;27.83;25.52;;;;;;;;;;5049673;28;20033;-60
2023/12/19 06:21:23;;;;;;;30.23;27.70;;;;;;;;;;5048717;28;20025;-61
2023/12/19 06:23:49;;;;;;;30.42;28.00;;;;;;;;;;5049204;28;20116;-62
2023/12/19 06:26:15;;;;;;;31.23;28.60;;;;;;;;;;5049249;28;20628;-62
2023/12/19 06:28:42;;;;;;;31.17;28.77;;;;;;;;;;5047497;28;20029;-62
2023/12/19 06:31:08;;;;;;;31.75;29.25;;;;;;;;;;5048863;28;20052;-60
2023/12/19 06:33:36;;;;;;;30.63;28.23;;;;;;;;;;5049463;28;20122;-60
2023/12/19 06:36:03;;;;;;;31.40;28.85;;;;;;;;;;5049437;28;20029;-60
2023/12/19 06:38:29;;;;;;;28.38;26.08;;;;;;;;;;5049797;28;20025;-62
2023/12/19 06:40:55;;;;;;;31.05;28.50;;;;;;;;;;5047984;28;20025;-60
2023/12/19 06:43:21;;;;;;;28.60;26.20;;;;;;;;;;5049862;28;20021;-62
2023/12/19 06:45:47;;;;;;;32.38;29.67;;;;;;;;;;5049461;28;20025;-64
2023/12/19 06:48:14;;;;;;;29.70;27.30;;;;;;;;;;5048042;28;20033;-62
2023/12/19 06:50:40;;;;;;;29.75;27.35;;;;;;;;;;5049920;28;20572;-61
2023/12/19 06:53:06;;;;;;;29.42;27.02;;;;;;;;;;5049142;28;20040;-62
2023/12/19 06:55:32;;;;;;;31.40;28.90;;;;;;;;;;5048008;28;20593;-61
2023/12/19 06:57:58;;;;;;;32.03;29.42;;;;;;;;;;5049393;28;20043;-61
2023/12/19 07:00:24;;;;;;;29.27;26.95;;;;;;;;;;5048545;28;20028;-59
2023/12/19 07:02:50;;;;;;;32.20;29.60;;;;;;;;;;5049212;28;20025;-64
2023/12/19 07:05:16;;;;;;;30.70;28.20;;;;;;;;;;5049194;28;20024;-64
2023/12/19 07:07:42;;;;;;;31.88;29.30;;;;;;;;;;5049377;28;20493;-63
2023/12/19 07:10:09;;;;;;;32.10;29.08;;;;;;;;;;5048998;28;20025;-65
2023/12/19 07:12:35;;;;;;;35.15;32.15;;;;;;;;;;5049055;28;20025;-62
2023/12/19 07:15:04;;;;;;;33.45;30.75;;;;;;;;;;5048226;28;20033;-58
2023/12/19 07:17:30;;;;;;;34.28;31.05;;;;;;;;;;5048652;28;20037;-62
2023/12/19 07:19:56;;;;;;;33.38;30.58;;;;;;;;;;5040356;28;20023;-60
2023/12/19 07:22:22;;;;;;;32.03;29.42;;;;;;;;;;5056655;28;20112;-63
2023/12/19 07:24:48;;;;;;;34.05;31.25;;;;;;;;;;5060915;28;20678;-63
2023/12/19 07:27:14;;;;;;;31.88;29.27;;;;;;;;;;5068002;28;20025;-63
2023/12/19 07:29:40;;;;;;;32.35;29.75;;;;;;;;;;5050626;28;20033;-64
2023/12/19 07:32:06;;;;;;;34.72;31.65;;;;;;;;;;5049011;28;20474;-64
2023/12/19 07:34:32;;;;;;;32.47;29.67;;;;;;;;;;5052334;28;20040;-62
2023/12/19 07:36:58;;;;;;;32.15;29.45;;;;;;;;;;5059172;28;20032;-62
2023/12/19 07:39:24;;;;;;;38.65;35.30;;;;;;;;;;5072293;28;20032;-62
2023/12/19 07:41:50;;;;;;;31.38;28.88;;;;;;;;;;5071837;28;20131;-62
2023/12/19 07:44:16;;;;;;;31.10;28.60;;;;;;;;;;5072058;28;20093;-64
2023/12/19 07:46:43;;;;;;;29.95;27.48;;;;;;;;;;5071938;28;20158;-62
2023/12/19 07:49:12;;;;;;;31.08;28.48;;;;;;;;;;5071715;28;20496;-61
2023/12/19 07:51:38;;;;;;;31.38;28.75;;;;;;;;;;5053567;28;20028;-62
2023/12/19 07:54:04;;;;;;;31.60;28.80;;;;;;;;;;5046063;28;20486;-61
2023/12/19 07:56:30;;;;;;;31.60;29.00;;;;;;;;;;5051802;28;20036;-63
2023/12/19 07:58:56;;;;;;;32.33;29.63;;;;;;;;;;5051540;28;20065;-62
2023/12/19 08:01:22;;;;;;;34.05;31.20;;;;;;;;;;5051624;28;20063;-62
2023/12/19 08:03:48;;;;;;;34.05;31.05;;;;;;;;;;5052023;28;20021;-59
2023/12/19 08:06:14;;;;;;;32.35;29.60;;;;;;;;;;5051496;28;20044;-63
2023/12/19 08:08:41;;;;;;;33.40;30.60;;;;;;;;;;5056866;28;20021;-61
2023/12/19 08:11:07;;;;;;;32.60;30.00;;;;;;;;;;5030033;28;20025;-60
2023/12/19 08:13:35;;;;;;;33.05;30.27;;;;;;;;;;5025763;28;20033;-63
2023/12/19 08:16:01;;;;;;;33.08;30.27;;;;;;;;;;5050488;28;20387;-62
2023/12/19 08:18:27;;;;;;;39.72;36.33;;;;;;;;;;5050841;28;20055;-63
2023/12/19 08:20:53;;;;;;;40.03;35.88;;;;;;;;;;5031475;28;20053;-62
2023/12/19 08:23:19;;;;;;;30.70;28.20;;;;;;;;;;5051099;28;20067;-60
2023/12/19 08:25:45;;;;;;;34.90;31.52;;;;;;;;;;5050871;28;20372;-62
2023/12/19 08:28:11;;;;;;;36.40;33.40;;;;;;;;;;5050761;28;20055;-62
2023/12/19 08:30:39;;;;;;;32.22;29.15;;;;;;;;;;5040352;28;20021;-62
2023/12/19 08:33:05;;;;;;;35.80;32.38;;;;;;;;;;5042576;28;20021;-60
2023/12/19 08:35:32;;;;;;;32.03;29.42;;;;;;;;;;5050647;28;20579;-62
2023/12/19 08:37:58;;;;;;;31.38;28.80;;;;;;;;;;5050616;28;20040;-60
2023/12/19 08:40:24;;;;;;;35.13;32.03;;;;;;;;;;5050302;28;20201;-62
2023/12/19 08:42:50;;;;;;;35.03;32.03;;;;;;;;;;5049969;28;20028;-60
2023/12/19 08:45:17;;;;;;;29.10;26.70;;;;;;;;;;5050571;28;20043;-61
2023/12/19 08:47:44;;;;;;;32.22;29.60;;;;;;;;;;5050272;28;20031;-59
2023/12/19 08:50:11;;;;;;;29.90;27.50;;;;;;;;;;5029293;28;20120;-62
2023/12/19 08:52:38;;;;;;;31.00;28.40;;;;;;;;;;5046088;28;20025;-61
2023/12/19 08:55:07;;;;;;;33.85;31.05;;;;;;;;;;5042805;28;20075;-62
2023/12/19 08:57:33;;;;;;;31.92;29.17;;;;;;;;;;5030526;28;20026;-62
2023/12/19 09:00:00;;;;;;;32.88;30.05;;;;;;;;;;5030470;28;20017;-61
2023/12/19 09:02:26;;;;;;;33.55;30.40;;;;;;;;;;5053052;28;20029;-54
2023/12/19 09:04:52;;;;;;;34.78;31.67;;;;;;;;;;5068286;28;20024;-51
2023/12/19 09:07:18;;;;;;;34.25;31.33;;;;;;;;;;5070088;28;20410;-49
2023/12/19 09:09:44;;;;;;;36.50;33.47;;;;;;;;;;5070310;28;20489;-51
2023/12/19 09:12:10;;;;;;;32.13;29.52;;;;;;;;;;5070108;28;20040;-51
2023/12/19 09:14:36;;;;;;;30.08;27.40;;;;;;;;;;5070469;28;20409;-49
2023/12/19 09:17:03;;;;;;;32.25;29.40;;;;;;;;;;5070328;28;20028;-50
2023/12/19 09:19:30;;;;;;;27.73;25.40;;;;;;;;;;5052568;28;20537;-52
2023/12/19 09:21:59;;;;;;;28.13;25.63;;;;;;;;;;5036619;28;20025;-52
2023/12/19 09:24:30;;;;;;;29.90;27.30;;;;;;;;;;5030022;28;20028;-54
2023/12/19 09:26:57;;;;;;;29.15;26.65;;;;;;;;;;5030003;28;20025;-53
2023/12/19 09:29:25;;;;;;;26.63;24.23;;;;;;;;;;5029854;28;20103;-50
2023/12/19 09:31:52;;;;;;;30.52;27.98;;;;;;;;;;5029935;28;20024;-51
2023/12/19 09:34:18;;;;;;;28.50;25.67;;;;;;;;;;5028592;28;20076;-52
2023/12/19 09:36:44;;;;;;;29.45;27.05;;;;;;;;;;5029740;28;20108;-54
2023/12/19 09:39:14;;;;;;;28.23;25.92;;;;;;;;;;5029692;28;20021;-51
2023/12/19 09:41:40;;;;;;;28.98;26.45;;;;;;;;;;5035003;28;20100;-53
2023/12/19 09:44:07;;;;;;;28.35;25.95;;;;;;;;;;5049610;28;20052;-50
2023/12/19 09:46:33;;;;;;;28.48;25.92;;;;;;;;;;5031522;28;20107;-48
2023/12/19 09:49:00;;;;;;;27.73;25.23;;;;;;;;;;5049303;28;20483;-51
2023/12/19 09:51:37;;;;;;;26.55;24.10;;;;;;;;;;5057011;28;20063;-51
2023/12/19 09:54:03;;;;;;;29.15;26.40;;;;;;;;;;5067791;28;20065;-47
2023/12/19 09:56:29;;;;;;;35.10;31.73;;;;;;;;;;5068838;28;20032;-53
2023/12/19 09:58:55;;;;;;;27.90;25.15;;;;;;;;;;5069094;28;20025;-56
2023/12/19 10:01:22;;;;;;;28.38;25.88;;;;;;;;;;5069050;28;20478;-53
2023/12/19 10:03:49;;;;;;;25.85;23.45;;;;;;;;;;5069249;28;20032;-53
2023/12/19 10:06:17;;;;;;;25.90;23.60;;;;;;;;;;5069108;28;20370;-59
2023/12/19 10:08:44;;;;;;;27.75;25.17;;;;;;;;;;5068728;28;20565;-58
2023/12/19 10:11:21;;;;;;;28.40;25.77;;;;;;;;;;5068855;28;20421;-58
2023/12/19 10:13:47;;;;;;;34.15;30.83;;;;;;;;;;5068733;28;20482;-57
2023/12/19 10:16:17;;;;;;;33.35;30.08;;;;;;;;;;5068811;28;20032;-56
2023/12/19 10:18:44;;;;;;;29.63;27.13;;;;;;;;;;5068676;28;20025;-58
2023/12/19 10:21:10;;;;;;;37.17;33.75;;;;;;;;;;5047816;28;20391;-56
2023/12/19 10:23:37;;;;;;;32.55;29.58;;;;;;;;;;5028807;28;20021;-59
2023/12/19 10:26:06;;;;;;;33.55;30.48;;;;;;;;;;5029171;28;20025;-59
2023/12/19 10:28:32;;;;;;;34.22;31.33;;;;;;;;;;5029105;28;20479;-54
2023/12/19 10:31:04;;;;;;;34.47;31.67;;;;;;;;;;5029077;28;20406;-52
2023/12/19 10:33:39;;;;;;;35.08;31.95;;;;;;;;;;5034592;28;20447;-57
2023/12/19 10:36:05;;;;;;;33.45;30.58;;;;;;;;;;5068586;28;20505;-53
2023/12/19 10:38:44;;;;;;;36.15;33.00;;;;;;;;;;5068528;28;20029;-57
2023/12/19 10:41:10;;;;;;;31.10;28.50;;;;;;;;;;5068279;28;20052;-57
2023/12/19 10:43:40;;;;;;;31.13;28.63;;;;;;;;;;5068617;28;20025;-56
2023/12/19 10:46:06;;;;;;;31.65;29.13;;;;;;;;;;5068315;28;20021;-55
2023/12/19 10:48:32;;;;;;;32.97;30.25;;;;;;;;;;5068376;28;20097;-59
2023/12/19 10:50:59;;;;;;;28.60;26.20;;;;;;;;;;5050525;28;20034;-59
2023/12/19 10:53:25;;;;;;;30.00;27.60;;;;;;;;;;5052183;28;20035;-57
2023/12/19 10:55:54;;;;;;;30.75;27.75;;;;;;;;;;5048160;28;20162;-56
2023/12/19 10:58:21;;;;;;;30.33;27.75;;;;;;;;;;5047909;28;20136;-55
2023/12/19 11:00:51;;;;;;;28.63;26.15;;;;;;;;;;5047582;28;20096;-57
2023/12/19 11:03:23;;;;;;;32.83;30.15;;;;;;;;;;5047921;28;20024;-57
2023/12/19 11:05:51;;;;;;;28.05;25.65;;;;;;;;;;5047709;28;20055;-54
2023/12/19 11:08:18;;;;;;;28.70;26.20;;;;;;;;;;5052910;28;20104;-58
2023/12/19 11:11:04;;;;;;;25.48;23.08;;;;;;;;;;5045776;28;20025;-56
2023/12/19 11:13:33;;;;;;;25.48;23.20;;;;;;;;;;5028243;28;20041;-53
2023/12/19 11:16:02;;;;;;;26.70;24.38;;;;;;;;;;5027826;28;20104;-54
2023/12/19 11:18:41;;;;;;;27.90;25.60;;;;;;;;;;5034040;28;20029;-55
2023/12/19 11:21:11;;;;;;;28.17;25.67;;;;;;;;;;5029451;28;20017;-53
2023/12/19 11:23:56;;;;;;;26.85;24.65;;;;;;;;;;5048484;28;20021;-57
2023/12/19 11:26:22;;;;;;;25.77;23.58;;;;;;;;;;5046146;28;20028;-55
2023/12/19 11:28:48;;;;;;;27.52;25.23;;;;;;;;;;5047903;28;20027;-57
2023/12/19 11:31:29;;;;;;;23.98;21.98;;;;;;;;;;5047384;28;20029;-56
2023/12/19 11:33:56;;;;;;;26.73;24.27;;;;;;;;;;5030027;28;20025;-58
2023/12/19 11:36:22;;;;;;;24.80;22.70;;;;;;;;;;5030045;28;20025;-57
2023/12/19 11:38:49;;;;;;;27.17;24.90;;;;;;;;;;5047349;28;20031;-57
2023/12/19 11:41:38;;;;;;;27.90;25.35;;;;;;;;;;5047811;28;20025;-57
2023/12/19 11:44:04;;;;;;;24.58;22.48;;;;;;;;;;5048036;28;20021;-55
2023/12/19 11:46:30;;;;;;;26.05;23.85;;;;;;;;;;5048002;28;20506;-59
2023/12/19 11:48:56;;;;;;;26.25;23.90;;;;;;;;;;5048381;28;20040;-59
2023/12/19 11:51:40;;;;;;;29.05;26.45;;;;;;;;;;5047726;28;20462;-58
2023/12/19 11:54:10;;;;;;;24.90;22.70;;;;;;;;;;5048048;28;20025;-58
2023/12/19 11:56:36;;;;;;;25.40;23.15;;;;;;;;;;5047850;28;20048;-57
2023/12/19 11:59:02;;;;;;;26.08;23.88;;;;;;;;;;5047596;28;20025;-57
2023/12/19 12:01:28;;;;;;;26.42;24.13;;;;;;;;;;5047603;28;20046;-52
2023/12/19 12:04:07;;;;;;;26.05;23.83;;;;;;;;;;5030167;28;20542;-56
2023/12/19 12:06:34;;;;;;;26.23;24.02;;;;;;;;;;5048027;28;20017;-55
2023/12/19 12:09:00;;;;;;;27.00;24.80;;;;;;;;;;5048055;28;20029;-54
2023/12/19 12:11:27;;;;;;;24.40;22.27;;;;;;;;;;5047410;28;20032;-57
2023/12/19 12:14:04;;;;;;;25.83;23.63;;;;;;;;;;5047435;28;20077;-58
2023/12/19 12:16:39;;;;;;;27.90;25.50;;;;;;;;;;5048073;28;20605;-56
2023/12/19 12:19:09;;;;;;;27.60;25.08;;;;;;;;;;5049827;28;20124;-55
2023/12/19 12:21:35;;;;;;;25.90;23.70;;;;;;;;;;5051140;28;20471;-54
2023/12/19 12:24:01;;;;;;;27.05;24.75;;;;;;;;;;5050983;28;20025;-59
2023/12/19 12:26:28;;;;;;;25.83;23.73;;;;;;;;;;5050964;28;20087;-58
2023/12/19 12:28:54;;;;;;;25.33;23.15;;;;;;;;;;5050910;28;20580;-55
2023/12/19 12:31:20;;;;;;;26.20;24.05;;;;;;;;;;5050783;28;20469;-57
2023/12/19 12:33:46;;;;;;;26.27;24.08;;;;;;;;;;5050912;28;20021;-56
2023/12/19 12:36:13;;;;;;;24.77;22.67;;;;;;;;;;5050679;28;20036;-53
2023/12/19 12:38:39;;;;;;;29.33;26.83;;;;;;;;;;5050641;28;20025;-55
2023/12/19 12:41:06;;;;;;;26.63;24.42;;;;;;;;;;5050537;28;20033;-55
2023/12/19 12:43:34;;;;;;;25.90;23.65;;;;;;;;;;5050820;28;20105;-58
2023/12/19 12:46:13;;;;;;;26.77;24.47;;;;;;;;;;5050910;28;20025;-56
2023/12/19 12:48:40;;;;;;;26.42;24.23;;;;;;;;;;5050658;28;20645;-56
2023/12/19 12:51:06;;;;;;;25.65;23.42;;;;;;;;;;5050471;28;20040;-54
2023/12/19 12:53:33;;;;;;;24.90;22.75;;;;;;;;;;5050502;28;20029;-55
2023/12/19 12:56:12;;;;;;;27.25;24.88;;;;;;;;;;5032419;28;20024;-56
2023/12/19 12:58:38;;;;;;;23.25;21.25;;;;;;;;;;5050510;28;20090;-51
2023/12/19 13:01:05;;;;;;;25.48;23.30;;;;;;;;;;5050436;28;20044;-55
2023/12/19 13:03:34;;;;;;;24.50;22.40;;;;;;;;;;5049418;28;20014;-55
2023/12/19 13:06:00;;;;;;;23.55;21.55;;;;;;;;;;5049281;28;20426;-55
2023/12/19 13:08:30;;;;;;;24.45;22.35;;;;;;;;;;5050071;28;20024;-54
2023/12/19 13:11:07;;;;;;;24.23;22.23;;;;;;;;;;5048361;28;20063;-57
2023/12/19 13:13:33;;;;;;;23.58;21.58;;;;;;;;;;5028137;28;20099;-54
2023/12/19 13:16:00;;;;;;;22.85;20.85;;;;;;;;;;5048238;28;20090;-54
2023/12/19 13:18:26;;;;;;;24.35;22.35;;;;;;;;;;5070303;23;20577;-52
2023/12/19 13:20:53;;;;;;;22.70;20.70;;;;;;;;;;5050740;28;20402;-55
2023/12/19 13:23:19;;;;;;;22.08;20.15;;;;;;;;;;5051334;28;20029;-53
2023/12/19 13:25:46;;;;;;;21.83;19.92;;;;;;;;;;5051284;28;20017;-54
2023/12/19 13:28:13;;;;;;;22.15;20.15;;;;;;;;;;5041967;28;20042;-51
2023/12/19 13:30:42;;;;;;;22.35;20.35;;;;;;;;;;5030551;28;20040;-52
2023/12/19 13:33:08;;;;;;;22.50;20.50;;;;;;;;;;5009938;28;20494;-47
2023/12/19 13:35:35;;;;;;;23.77;21.73;;;;;;;;;;5026643;28;20021;-52
2023/12/19 13:38:01;;;;;;;24.65;22.55;;;;;;;;;;5011954;28;20033;-51
2023/12/19 13:40:27;;;;;;;23.55;21.55;;;;;;;;;;5031065;28;20030;-53
2023/12/19 13:42:54;;;;;;;24.30;22.20;;;;;;;;;;5031056;28;20022;-54
2023/12/19 13:45:20;;;;;;;23.85;21.75;;;;;;;;;;5030952;28;20470;-50
2023/12/19 13:47:46;;;;;;;23.55;21.55;;;;;;;;;;5009847;28;20025;-51
2023/12/19 13:50:12;;;;;;;23.00;21.00;;;;;;;;;;5038709;28;20021;-51
2023/12/19 13:52:42;;;;;;;22.90;20.90;;;;;;;;;;5046345;28;20225;-53
2023/12/19 13:55:08;;;;;;;22.63;20.63;;;;;;;;;;5033010;28;20029;-51
2023/12/19 13:57:35;;;;;;;22.98;20.98;;;;;;;;;;5051254;28;20037;-50
2023/12/19 14:00:01;;;;;;;24.25;22.15;;;;;;;;;;5050701;28;20017;-51
2023/12/19 14:02:28;;;;;;;24.58;22.48;;;;;;;;;;5050156;28;20083;-48
2023/12/19 14:04:54;;;;;;;23.42;21.38;;;;;;;;;;5051016;28;20021;-50
2023/12/19 14:07:22;;;;;;;23.52;21.52;;;;;;;;;;5033295;28;20025;-51
2023/12/19 14:09:48;;;;;;;23.35;21.35;;;;;;;;;;5051703;28;20410;-54
2023/12/19 14:12:14;;;;;;;23.45;21.45;;;;;;;;;;5033068;28;20471;-51
2023/12/19 14:14:40;;;;;;;22.73;20.73;;;;;;;;;;5051118;28;20056;-53
2023/12/19 14:17:07;;;;;;;22.95;20.95;;;;;;;;;;5050634;28;20024;-47